Time;durP1;ratioP1;P1;durP2;ratioP2;P2;SDS_P1;SDS_P2;PMS_P1;PMS_P2;Temp;Humidity;BMP_temperature;BMP_pressure;BME280_temperature;BME280_humidity;BME280_pressure;Samples;Min_cycle;Max_cycle;Signal;HPM_P1;HPM_P2
2023/03/02 00:00:56;;;;;;;;;;;3.20;99.90;;;;;;5071215;28;19943;-43
2023/03/02 00:03:23;;;;;;;;;;;3.20;99.90;;;;;;5072437;28;19992;-45
2023/03/02 00:05:50;;;;;;;;;;;3.20;99.90;;;;;;5068967;28;20004;-41
2023/03/02 00:08:16;;;;;;;;;;;3.20;99.90;;;;;;5089270;28;19939;-42
2023/03/02 00:10:43;;;;;;;;;;;3.10;99.90;;;;;;5071871;28;20036;-45
2023/03/02 00:13:10;;;;;;;;;;;3.10;99.90;;;;;;5073427;28;20000;-45
2023/03/02 00:15:36;;;;;;;;;;;3.10;99.90;;;;;;5073436;28;20323;-45
2023/03/02 00:18:04;;;;;;;;;;;3.10;99.90;;;;;;5091458;28;19981;-45
2023/03/02 00:20:33;;;;;;;;;;;3.10;99.90;;;;;;5069187;28;20012;-45
2023/03/02 00:23:00;;;;;;;;;;;3.00;99.90;;;;;;5070486;28;19949;-44
2023/03/02 00:25:27;;;;;;;;;;;3.10;99.90;;;;;;5068886;28;20387;-47
2023/03/02 00:27:54;;;;;;;;;;;3.10;99.90;;;;;;5069878;28;19985;-47
2023/03/02 00:30:20;;;;;;;;;;;3.00;99.90;;;;;;5070725;28;19936;-44
2023/03/02 00:32:47;;;;;;;;;;;3.00;99.90;;;;;;5070674;28;20007;-47
2023/03/02 00:35:15;;;;;;;;;;;3.00;99.90;;;;;;5071562;28;20295;-45
2023/03/02 00:37:42;;;;;;;;;;;3.00;99.90;;;;;;5070444;28;19943;-45
2023/03/02 00:40:09;;;;;;;;;;;3.00;99.90;;;;;;5068582;28;19985;-46
2023/03/02 00:42:36;;;;;;;;;;;3.00;99.90;;;;;;5068574;28;19952;-46
2023/03/02 00:45:03;;;;;;;;;;;3.00;99.90;;;;;;5066599;28;20028;-43
2023/03/02 00:47:30;;;;;;;;;;;3.00;99.90;;;;;;5071554;28;19954;-44
2023/03/02 00:49:56;;;;;;;;;;;3.00;99.90;;;;;;5069389;28;19983;-43
2023/03/02 00:52:25;;;;;;;;;;;3.00;99.90;;;;;;5066904;28;19982;-45
2023/03/02 00:54:51;;;;;;;;;;;3.00;99.90;;;;;;5066560;28;19998;-48
2023/03/02 00:57:18;;;;;;;;;;;3.00;99.90;;;;;;5066883;28;19995;-48
2023/03/02 00:59:45;;;;;;;;;;;3.10;99.90;;;;;;5069531;28;19994;-45
2023/03/02 01:02:11;;;;;;;;;;;3.00;99.90;;;;;;5069335;28;19999;-46
2023/03/02 01:04:39;;;;;;;;;;;3.00;99.90;;;;;;5069285;28;20013;-43
2023/03/02 01:07:06;;;;;;;;;;;3.00;99.90;;;;;;5063045;28;20026;-47
2023/03/02 01:09:34;;;;;;;;;;;3.00;99.90;;;;;;5068071;28;19991;-43
2023/03/02 01:12:01;;;;;;;;;;;2.90;99.90;;;;;;5065924;28;20017;-42
2023/03/02 01:14:28;;;;;;;;;;;3.00;99.90;;;;;;5059744;28;20033;-45
2023/03/02 01:16:54;;;;;;;;;;;2.90;99.90;;;;;;5063156;28;20044;-43
2023/03/02 01:19:21;;;;;;;;;;;2.90;99.90;;;;;;5068868;28;19987;-41
2023/03/02 01:21:47;;;;;;;;;;;2.90;99.90;;;;;;5087931;28;19982;-42
2023/03/02 01:24:14;;;;;;;;;;;2.90;99.90;;;;;;5071317;28;20026;-44
2023/03/02 01:26:42;;;;;;;;;;;2.90;99.90;;;;;;5074321;28;19947;-45
2023/03/02 01:29:10;;;;;;;;;;;2.80;99.90;;;;;;5076321;28;20001;-42
2023/03/02 01:31:37;;;;;;;;;;;2.90;99.90;;;;;;5076498;28;19943;-40
2023/03/02 01:34:03;;;;;;;;;;;2.80;99.90;;;;;;5073624;28;19946;-44
2023/03/02 01:36:30;;;;;;;;;;;2.80;99.90;;;;;;5088566;28;19944;-46
2023/03/02 01:38:56;;;;;;;;;;;2.80;99.90;;;;;;5076825;28;20423;-40
2023/03/02 01:41:23;;;;;;;;;;;2.80;99.90;;;;;;5077278;28;19980;-46
2023/03/02 01:43:51;;;;;;;;;;;2.80;99.90;;;;;;5076425;28;19972;-45
2023/03/02 01:46:18;;;;;;;;;;;2.80;99.90;;;;;;5094192;28;20007;-43
2023/03/02 01:48:47;;;;;;;;;;;2.80;99.90;;;;;;5075416;28;20049;-45
2023/03/02 01:51:14;;;;;;;;;;;2.70;99.90;;;;;;5093751;28;19996;-46
2023/03/02 01:53:45;;;;;;;;;;;2.70;99.90;;;;;;5076668;28;19944;-42
2023/03/02 01:56:12;;;;;;;;;;;2.70;99.90;;;;;;5075989;28;19948;-45
2023/03/02 01:58:39;;;;;;;;;;;2.70;99.90;;;;;;5094717;28;20401;-44
2023/03/02 02:01:14;;;;;;;;;;;2.70;99.90;;;;;;5093224;28;19986;-43
2023/03/02 02:03:40;;;;;;;;;;;2.70;99.90;;;;;;5071989;28;19953;-48
2023/03/02 02:06:09;;;;;;;;;;;2.70;99.90;;;;;;5075252;28;20365;-44
2023/03/02 02:08:36;;;;;;;;;;;2.60;99.90;;;;;;5091695;28;20022;-42
2023/03/02 02:11:02;;;;;;;;;;;2.70;99.90;;;;;;5074086;28;19947;-48
2023/03/02 02:13:29;;;;;;;;;;;2.60;99.90;;;;;;5093720;28;20032;-42
2023/03/02 02:15:55;;;;;;;;;;;2.70;99.90;;;;;;5093338;28;20385;-43
2023/03/02 02:18:23;;;;;;;;;;;2.60;99.90;;;;;;5091520;28;20033;-46
2023/03/02 02:20:50;;;;;;;;;;;2.60;99.90;;;;;;5074121;28;20062;-45
2023/03/02 02:23:19;;;;;;;;;;;2.60;99.90;;;;;;5076367;28;19989;-40
2023/03/02 02:25:54;;;;;;;;;;;2.60;99.90;;;;;;5076196;28;19970;-43
2023/03/02 02:28:21;;;;;;;;;;;2.60;99.90;;;;;;5074260;28;19941;-46
2023/03/02 02:30:48;;;;;;;;;;;2.60;99.90;;;;;;5091946;28;19990;-43
2023/03/02 02:33:14;;;;;;;;;;;2.60;99.90;;;;;;5092680;28;20045;-44
2023/03/02 02:35:41;;;;;;;;;;;2.60;99.90;;;;;;5074750;28;20036;-44
2023/03/02 02:38:08;;;;;;;;;;;2.60;99.90;;;;;;5084339;28;19980;-43
2023/03/02 02:40:42;;;;;;;;;;;2.60;99.90;;;;;;5086822;28;20012;-42
2023/03/02 02:43:11;;;;;;;;;;;2.60;99.90;;;;;;5079792;28;19948;-46
2023/03/02 02:45:37;;;;;;;;;;;2.60;99.90;;;;;;5092785;28;20413;-43
2023/03/02 02:48:04;;;;;;;;;;;2.60;99.90;;;;;;5061216;28;19943;-41
2023/03/02 02:50:32;;;;;;;;;;;2.50;99.90;;;;;;5059579;28;20062;-44
2023/03/02 02:52:59;;;;;;;;;;;2.40;99.90;;;;;;5057941;28;20006;-44
2023/03/02 02:55:26;;;;;;;;;;;2.50;99.90;;;;;;5058512;28;20489;-44
2023/03/02 02:57:53;;;;;;;;;;;2.40;99.90;;;;;;5076960;28;20294;-42
2023/03/02 03:00:22;;;;;;;;;;;2.40;99.90;;;;;;5057992;28;19945;-40
2023/03/02 03:02:49;;;;;;;;;;;2.40;99.90;;;;;;5077050;28;19946;-43
2023/03/02 03:05:16;;;;;;;;;;;2.40;99.90;;;;;;5057975;28;20415;-42
2023/03/02 03:07:43;;;;;;;;;;;2.40;99.90;;;;;;5060533;28;21223;-40
2023/03/02 03:10:10;;;;;;;;;;;2.40;99.90;;;;;;5073797;28;20432;-44
2023/03/02 03:12:37;;;;;;;;;;;2.40;99.90;;;;;;5056476;28;20456;-41
2023/03/02 03:15:04;;;;;;;;;;;2.40;99.90;;;;;;5077594;28;21194;-46
2023/03/02 03:17:32;;;;;;;;;;;2.40;99.90;;;;;;5057323;28;20042;-44
2023/03/02 03:20:04;;;;;;;;;;;2.40;99.90;;;;;;5057144;28;20086;-45
2023/03/02 03:22:31;;;;;;;;;;;2.40;99.90;;;;;;5076806;28;19984;-42
2023/03/02 03:24:58;;;;;;;;;;;2.30;99.90;;;;;;5058150;28;21100;-42
2023/03/02 03:27:25;;;;;;;;;;;2.30;99.90;;;;;;5082209;28;19943;-43
2023/03/02 03:29:51;;;;;;;;;;;2.30;99.90;;;;;;5076975;28;20027;-47
2023/03/02 03:32:18;;;;;;;;;;;2.30;99.90;;;;;;5075545;28;20043;-43
2023/03/02 03:34:46;;;;;;;;;;;2.20;99.90;;;;;;5075541;28;20398;-42
2023/03/02 03:37:13;;;;;;;;;;;2.20;99.90;;;;;;5074539;28;20530;-40
2023/03/02 03:39:40;;;;;;;;;;;2.20;99.90;;;;;;5076107;28;19999;-44
2023/03/02 03:42:07;;;;;;;;;;;2.20;99.90;;;;;;5058403;28;19983;-41
2023/03/02 03:44:33;;;;;;;;;;;2.20;99.90;;;;;;5060422;28;20028;-45
2023/03/02 03:47:00;;;;;;;;;;;2.20;99.90;;;;;;5075309;28;20086;-40
2023/03/02 03:49:26;;;;;;;;;;;2.20;99.90;;;;;;5076134;28;19997;-44
2023/03/02 03:51:54;;;;;;;;;;;2.20;99.90;;;;;;5056109;28;20032;-40
2023/03/02 03:54:21;;;;;;;;;;;2.20;99.90;;;;;;5077391;28;20098;-42
2023/03/02 03:56:48;;;;;;;;;;;2.10;99.90;;;;;;5057572;28;20543;-41
2023/03/02 03:59:15;;;;;;;;;;;2.10;99.90;;;;;;5057829;28;19978;-46
2023/03/02 04:01:43;;;;;;;;;;;2.20;99.90;;;;;;5058103;28;19947;-41
2023/03/02 04:04:10;;;;;;;;;;;2.20;99.90;;;;;;5061074;28;20625;-43
2023/03/02 04:06:37;;;;;;;;;;;2.20;99.90;;;;;;5074520;28;20567;-44
2023/03/02 04:09:05;;;;;;;;;;;2.10;99.90;;;;;;5058288;28;20043;-39
2023/03/02 04:11:31;;;;;;;;;;;2.10;99.90;;;;;;5077722;28;19951;-41
2023/03/02 04:13:58;;;;;;;;;;;2.10;99.90;;;;;;5073439;28;20357;-45
2023/03/02 04:16:25;;;;;;;;;;;2.00;99.90;;;;;;5074019;28;20355;-43
2023/03/02 04:18:51;;;;;;;;;;;2.00;99.90;;;;;;5090756;28;20294;-46
2023/03/02 04:21:18;;;;;;;;;;;1.90;99.90;;;;;;5072840;28;20014;-45
2023/03/02 04:23:45;;;;;;;;;;;2.00;99.90;;;;;;5090234;28;19941;-45
2023/03/02 04:26:13;;;;;;;;;;;2.00;99.90;;;;;;5092093;28;20066;-42
2023/03/02 04:28:39;;;;;;;;;;;2.00;99.90;;;;;;5072948;28;19989;-42
2023/03/02 04:31:06;;;;;;;;;;;1.90;99.90;;;;;;5072556;28;19943;-42
2023/03/02 04:33:33;;;;;;;;;;;1.90;99.90;;;;;;5073592;28;19997;-40
2023/03/02 04:35:59;;;;;;;;;;;2.00;99.90;;;;;;5073115;28;19990;-40
2023/03/02 04:38:28;;;;;;;;;;;1.90;99.90;;;;;;5088727;28;19944;-45
2023/03/02 04:40:55;;;;;;;;;;;1.90;99.90;;;;;;5070703;28;20306;-43
2023/03/02 04:43:24;;;;;;;;;;;1.80;99.90;;;;;;5073479;28;20038;-43
2023/03/02 04:45:51;;;;;;;;;;;1.90;99.90;;;;;;5091313;28;20302;-43
2023/03/02 04:48:17;;;;;;;;;;;1.80;99.90;;;;;;5091569;28;19987;-46
2023/03/02 04:50:44;;;;;;;;;;;1.80;99.90;;;;;;5090866;28;19940;-43
2023/03/02 04:53:11;;;;;;;;;;;1.80;99.90;;;;;;5090880;28;20039;-47
2023/03/02 04:55:37;;;;;;;;;;;1.80;99.90;;;;;;5091417;28;19980;-42
2023/03/02 04:58:04;;;;;;;;;;;1.80;99.90;;;;;;5071899;28;19992;-44
2023/03/02 05:00:34;;;;;;;;;;;1.80;99.90;;;;;;5088808;28;19981;-41
2023/03/02 05:03:00;;;;;;;;;;;1.80;99.90;;;;;;5092863;28;19985;-43
2023/03/02 05:05:27;;;;;;;;;;;1.80;99.90;;;;;;5094698;28;19943;-43
2023/03/02 05:07:54;;;;;;;;;;;1.70;99.90;;;;;;5093796;28;19987;-44
2023/03/02 05:10:21;;;;;;;;;;;1.70;99.90;;;;;;5093437;28;19946;-41
2023/03/02 05:13:01;;;;;;;;;;;1.80;99.90;;;;;;5073925;28;20043;-43
2023/03/02 05:15:28;;;;;;;;;;;1.80;99.90;;;;;;5094143;28;19985;-40
2023/03/02 05:17:57;;;;;;;;;;;1.70;99.90;;;;;;5095183;28;19991;-43
2023/03/02 05:20:26;;;;;;;;;;;1.80;99.90;;;;;;5094462;28;20450;-45
2023/03/02 05:22:53;;;;;;;;;;;1.80;99.90;;;;;;5077555;28;20459;-42
2023/03/02 05:25:20;;;;;;;;;;;1.70;99.90;;;;;;5094057;28;20037;-43
2023/03/02 05:27:46;;;;;;;;;;;1.80;99.90;;;;;;5077409;28;20054;-47
2023/03/02 05:30:13;;;;;;;;;;;1.70;99.90;;;;;;5093415;28;19999;-38
2023/03/02 05:32:40;;;;;;;;;;;1.70;99.90;;;;;;5084594;28;20367;-43
2023/03/02 05:35:08;;;;;;;;;;;1.70;99.90;;;;;;5092586;28;20029;-43
2023/03/02 05:37:35;;;;;;;;;;;1.70;99.90;;;;;;5077162;28;19994;-45
2023/03/02 05:40:02;;;;;;;;;;;1.70;99.90;;;;;;5094109;28;19943;-42
2023/03/02 05:42:28;;;;;;;;;;;1.60;99.90;;;;;;5076122;28;19949;-44
2023/03/02 05:44:55;;;;;;;;;;;1.60;99.90;;;;;;5094353;28;19990;-44
2023/03/02 05:47:22;;;;;;;;;;;1.60;99.90;;;;;;5076756;28;20065;-43
2023/03/02 05:49:48;;;;;;;;;;;1.60;99.90;;;;;;5094022;28;20029;-43
2023/03/02 05:52:16;;;;;;;;;;;1.60;99.90;;;;;;5091580;28;19950;-44
2023/03/02 05:54:43;;;;;;;;;;;1.60;99.90;;;;;;5075823;28;20382;-44
2023/03/02 05:57:09;;;;;;;;;;;1.60;99.90;;;;;;5093447;28;20392;-45
2023/03/02 05:59:36;;;;;;;;;;;1.60;99.90;;;;;;5075869;28;20035;-45
2023/03/02 06:02:03;;;;;;;;;;;1.60;99.90;;;;;;5071133;28;19997;-39
2023/03/02 06:04:30;;;;;;;;;;;1.60;99.90;;;;;;5074212;28;19993;-45
2023/03/02 06:06:56;;;;;;;;;;;1.50;99.90;;;;;;5093110;28;20068;-42
2023/03/02 06:09:24;;;;;;;;;;;1.60;99.90;;;;;;5092792;28;19987;-48
2023/03/02 06:11:51;;;;;;;;;;;1.50;99.90;;;;;;5091446;28;20106;-44
2023/03/02 06:14:17;;;;;;;;;;;1.50;99.90;;;;;;5073003;28;20455;-44
2023/03/02 06:16:44;;;;;;;;;;;1.50;99.90;;;;;;5093451;28;20039;-43
2023/03/02 06:19:11;;;;;;;;;;;1.50;99.90;;;;;;5091853;28;20030;-44
2023/03/02 06:21:37;;;;;;;;;;;1.50;99.90;;;;;;5092808;28;20448;-43
2023/03/02 06:24:04;;;;;;;;;;;1.50;99.90;;;;;;5092863;28;19940;-44
2023/03/02 06:26:32;;;;;;;;;;;1.40;99.90;;;;;;5074948;28;19963;-43
2023/03/02 06:28:59;;;;;;;;;;;1.40;99.90;;;;;;5072166;28;20036;-42
2023/03/02 06:31:25;;;;;;;;;;;1.40;99.90;;;;;;5073467;28;20090;-44
2023/03/02 06:33:52;;;;;;;;;;;1.40;99.90;;;;;;5074020;28;20011;-42
2023/03/02 06:36:18;;;;;;;;;;;1.40;99.90;;;;;;5092425;28;19990;-44
2023/03/02 06:38:45;;;;;;;;;;;1.30;99.90;;;;;;5092087;28;19952;-41
2023/03/02 06:41:12;;;;;;;;;;;1.30;99.90;;;;;;5072323;28;19984;-45
2023/03/02 06:43:40;;;;;;;;;;;1.20;99.90;;;;;;5089710;28;20035;-45
2023/03/02 06:46:06;;;;;;;;;;;1.20;99.90;;;;;;5072238;28;20378;-45
2023/03/02 06:48:33;;;;;;;;;;;1.20;99.90;;;;;;5092549;28;19981;-44
2023/03/02 06:51:00;;;;;;;;;;;1.30;99.90;;;;;;5091436;28;19993;-45
2023/03/02 06:53:26;;;;;;;;;;;1.30;99.90;;;;;;5093046;28;19988;-46
2023/03/02 06:55:53;;;;;;;;;;;1.30;99.90;;;;;;5074248;28;20408;-41
2023/03/02 06:58:19;;;;;;;;;;;1.30;99.90;;;;;;5091553;28;20034;-42
2023/03/02 07:00:47;;;;;;;;;;;1.30;99.90;;;;;;5073875;28;19995;-44
2023/03/02 07:03:14;;;;;;;;;;;1.30;99.90;;;;;;5089925;28;20000;-44
2023/03/02 07:05:41;;;;;;;;;;;1.40;99.90;;;;;;5090595;28;19936;-43
2023/03/02 07:08:07;;;;;;;;;;;1.40;99.90;;;;;;5089056;28;20048;-43
2023/03/02 07:10:34;;;;;;;;;;;1.40;99.90;;;;;;5092240;28;19988;-44
2023/03/02 07:13:01;;;;;;;;;;;1.40;99.90;;;;;;5063185;28;19948;-41
2023/03/02 07:15:27;;;;;;;;;;;1.40;99.90;;;;;;5092206;28;19977;-44
2023/03/02 07:17:55;;;;;;;;;;;1.40;99.90;;;;;;5069775;28;20046;-43
2023/03/02 07:20:22;;;;;;;;;;;1.40;99.90;;;;;;5089633;28;20068;-43
2023/03/02 07:22:49;;;;;;;;;;;1.40;99.90;;;;;;5072023;28;20000;-42
2023/03/02 07:25:15;;;;;;;;;;;1.50;99.90;;;;;;5075108;28;19940;-43
2023/03/02 07:27:42;;;;;;;;;;;1.40;99.90;;;;;;5073721;28;20028;-43
2023/03/02 07:30:09;;;;;;;;;;;1.50;99.90;;;;;;5072499;28;20034;-43
2023/03/02 07:32:36;;;;;;;;;;;1.50;99.90;;;;;;5074782;28;19943;-42
2023/03/02 07:35:04;;;;;;;;;;;1.50;99.90;;;;;;5073498;28;19949;-48
2023/03/02 07:37:31;;;;;;;;;;;1.50;99.90;;;;;;5089746;28;19945;-45
2023/03/02 07:39:58;;;;;;;;;;;1.50;99.90;;;;;;5072636;28;19995;-45
2023/03/02 07:42:24;;;;;;;;;;;1.50;99.90;;;;;;5072655;28;19951;-42
2023/03/02 07:44:52;;;;;;;;;;;1.60;99.90;;;;;;5073435;28;19982;-46
2023/03/02 07:47:18;;;;;;;;;;;1.60;99.90;;;;;;5091302;28;20044;-41
2023/03/02 07:49:45;;;;;;;;;;;1.60;99.90;;;;;;5073182;28;20356;-45
2023/03/02 07:52:13;;;;;;;;;;;1.60;99.90;;;;;;5084280;28;20398;-46
2023/03/02 07:54:39;;;;;;;;;;;1.60;99.90;;;;;;5088065;28;20024;-47
2023/03/02 07:57:06;;;;;;;;;;;1.60;99.90;;;;;;5091996;28;19971;-43
2023/03/02 07:59:33;;;;;;;;;;;1.70;99.90;;;;;;5091690;28;19980;-45
2023/03/02 08:01:59;;;;;;;;;;;1.70;99.90;;;;;;5087561;28;20369;-44
2023/03/02 08:04:26;;;;;;;;;;;1.70;99.90;;;;;;5070138;28;20006;-44
2023/03/02 08:06:53;;;;;;;;;;;1.70;99.90;;;;;;5070752;28;19959;-47
2023/03/02 08:09:21;;;;;;;;;;;1.80;99.90;;;;;;5068472;28;19995;-44
2023/03/02 08:11:47;;;;;;;;;;;1.80;99.90;;;;;;5070391;28;20027;-42
2023/03/02 08:14:14;;;;;;;;;;;1.80;99.90;;;;;;5073642;28;20401;-39
2023/03/02 08:16:40;;;;;;;;;;;1.80;99.90;;;;;;5092742;28;19941;-45
2023/03/02 08:19:07;;;;;;;;;;;1.90;99.90;;;;;;5087279;28;19992;-42
2023/03/02 08:21:34;;;;;;;;;;;1.90;99.90;;;;;;5067827;28;20005;-44
2023/03/02 08:24:00;;;;;;;;;;;1.90;99.90;;;;;;5070571;28;20041;-44
2023/03/02 08:26:28;;;;;;;;;;;1.90;99.90;;;;;;5072673;28;20006;-44
2023/03/02 08:28:55;;;;;;;;;;;1.90;99.90;;;;;;5070230;28;20017;-47
2023/03/02 08:31:24;;;;;;;;;;;1.90;99.90;;;;;;5089707;28;19992;-43
2023/03/02 08:33:51;;;;;;;;;;;1.90;99.90;;;;;;5084503;28;19942;-41
2023/03/02 08:36:18;;;;;;;;;;;1.90;99.90;;;;;;5072071;28;20003;-44
2023/03/02 08:38:44;;;;;;;;;;;1.90;99.90;;;;;;5089010;28;19983;-42
2023/03/02 08:41:11;;;;;;;;;;;1.90;99.90;;;;;;5084670;28;19943;-47
2023/03/02 08:43:39;;;;;;;;;;;1.90;99.90;;;;;;5074006;28;19986;-43
2023/03/02 08:46:06;;;;;;;;;;;1.90;99.90;;;;;;5073386;28;19981;-45
2023/03/02 08:48:33;;;;;;;;;;;2.00;99.90;;;;;;5086000;28;20003;-39
2023/03/02 08:51:00;;;;;;;;;;;2.00;99.90;;;;;;5090803;28;19988;-42
2023/03/02 08:53:27;;;;;;;;;;;2.00;99.90;;;;;;5073279;28;19982;-42
2023/03/02 08:55:54;;;;;;;;;;;2.10;99.90;;;;;;5089957;28;19987;-41
2023/03/02 08:58:20;;;;;;;;;;;2.20;99.90;;;;;;5073315;28;20009;-41
2023/03/02 09:00:48;;;;;;;;;;;2.30;99.90;;;;;;5089902;28;20382;-46
2023/03/02 09:03:15;;;;;;;;;;;2.40;99.90;;;;;;5088988;28;19967;-43
2023/03/02 09:05:42;;;;;;;;;;;2.40;99.90;;;;;;5089102;28;19991;-45
2023/03/02 09:08:08;;;;;;;;;;;2.50;99.90;;;;;;5089576;28;20041;-42
2023/03/02 09:10:35;;;;;;;;;;;2.50;99.90;;;;;;5072725;28;20482;-46
2023/03/02 09:13:02;;;;;;;;;;;2.60;99.90;;;;;;5072505;28;19994;-45
2023/03/02 09:15:28;;;;;;;;;;;2.60;99.90;;;;;;5072080;28;19989;-43
2023/03/02 09:17:56;;;;;;;;;;;2.70;99.90;;;;;;5069761;28;19943;-41
2023/03/02 09:20:23;;;;;;;;;;;2.70;99.90;;;;;;5061274;28;19997;-45
2023/03/02 09:22:50;;;;;;;;;;;2.80;99.90;;;;;;5052077;28;19983;-43
2023/03/02 09:25:16;;;;;;;;;;;2.70;99.90;;;;;;5070431;28;19970;-43
2023/03/02 09:27:43;;;;;;;;;;;2.70;99.90;;;;;;5068341;28;20065;-44
2023/03/02 09:30:10;;;;;;;;;;;2.70;99.90;;;;;;5068767;28;20693;-44
2023/03/02 09:32:37;;;;;;;;;;;2.60;99.90;;;;;;5068103;28;19991;-43
2023/03/02 09:35:05;;;;;;;;;;;2.60;99.90;;;;;;5070710;28;20033;-44
2023/03/02 09:37:34;;;;;;;;;;;2.50;99.90;;;;;;5070079;28;20168;-43
2023/03/02 09:40:00;;;;;;;;;;;2.50;99.90;;;;;;5071056;28;19956;-46
2023/03/02 09:42:30;;;;;;;;;;;2.50;99.90;;;;;;5070998;28;19999;-43
2023/03/02 09:45:10;;;;;;;;;;;2.60;99.90;;;;;;5069510;28;19943;-46
2023/03/02 09:47:38;;;;;;;;;;;2.60;99.90;;;;;;5071470;28;20009;-43
2023/03/02 09:50:18;;;;;;;;;;;2.60;99.90;;;;;;5074322;28;20322;-45
2023/03/02 09:52:47;;;;;;;;;;;2.70;99.90;;;;;;5073314;28;20381;-41
2023/03/02 09:55:14;;;;;;;;;;;2.70;99.90;;;;;;5074519;28;20000;-44
2023/03/02 09:57:40;;;;;;;;;;;2.80;99.90;;;;;;5073674;28;20046;-47
2023/03/02 10:00:08;;;;;;;;;;;2.70;99.90;;;;;;5075193;28;20401;-45
2023/03/02 10:02:35;;;;;;;;;;;2.70;99.90;;;;;;5075117;28;19987;-45
2023/03/02 10:05:02;;;;;;;;;;;2.80;99.90;;;;;;5067568;28;19993;-43
2023/03/02 10:07:31;;;;;;;;;;;2.80;99.90;;;;;;5067251;28;20851;-40
2023/03/02 10:09:58;;;;;;;;;;;2.80;99.90;;;;;;5070506;28;19949;-41
2023/03/02 10:15:49;;;;;;;;;;;2.90;99.90;;;;;;4771702;22;20016;-43
2023/03/02 10:18:19;;;;;;;;;;;2.90;99.90;;;;;;5057564;28;19950;-44
2023/03/02 10:20:47;;;;;;;;;;;2.90;99.90;;;;;;5075010;28;20200;-42
2023/03/02 10:23:19;;;;;;;;;;;3.00;99.90;;;;;;5074900;28;19998;-42
2023/03/02 10:25:47;;;;;;;;;;;3.00;99.90;;;;;;5057315;28;20416;-42
2023/03/02 10:28:15;;;;;;;;;;;3.00;99.90;;;;;;5074603;28;19933;-44
2023/03/02 10:30:42;;;;;;;;;;;3.00;99.90;;;;;;5075008;28;20028;-42
2023/03/02 10:33:09;;;;;;;;;;;3.10;99.90;;;;;;5075716;28;19989;-45
2023/03/02 10:35:44;;;;;;;;;;;3.10;99.90;;;;;;5077052;28;19968;-43
2023/03/02 10:38:11;;;;;;;;;;;3.10;99.90;;;;;;5094815;28;19985;-46
2023/03/02 10:40:43;;;;;;;;;;;3.30;99.90;;;;;;5094555;28;20461;-41
2023/03/02 10:43:13;;;;;;;;;;;3.30;99.90;;;;;;5094913;28;20010;-44
2023/03/02 10:45:40;;;;;;;;;;;3.30;99.90;;;;;;5076987;28;20283;-47
2023/03/02 10:48:07;;;;;;;;;;;3.40;99.90;;;;;;5076633;28;20051;-43
2023/03/02 10:50:34;;;;;;;;;;;3.40;99.90;;;;;;5094554;28;19992;-46
2023/03/02 10:53:01;;;;;;;;;;;3.50;99.90;;;;;;5076408;28;19986;-43
2023/03/02 10:55:27;;;;;;;;;;;3.50;99.90;;;;;;5076542;28;20036;-44
2023/03/02 10:58:02;;;;;;;;;;;3.50;99.90;;;;;;5094548;28;19940;-44
2023/03/02 11:00:29;;;;;;;;;;;3.60;99.90;;;;;;5093680;28;19944;-42
2023/03/02 11:02:56;;;;;;;;;;;3.60;99.90;;;;;;5076456;28;20412;-46
2023/03/02 11:05:26;;;;;;;;;;;3.60;99.90;;;;;;5094378;28;20377;-44
2023/03/02 11:07:53;;;;;;;;;;;3.70;99.90;;;;;;5076109;28;19939;-45
2023/03/02 11:10:20;;;;;;;;;;;3.90;99.90;;;;;;5094378;28;19945;-41
2023/03/02 11:12:47;;;;;;;;;;;4.00;99.90;;;;;;5093324;28;20073;-40
2023/03/02 11:15:17;;;;;;;;;;;4.10;99.90;;;;;;5091226;28;19946;-43
2023/03/02 11:17:43;;;;;;;;;;;4.10;99.90;;;;;;5075932;28;20028;-41
2023/03/02 11:20:13;;;;;;;;;;;4.20;99.90;;;;;;5075238;28;20025;-44
2023/03/02 11:22:40;;;;;;;;;;;4.20;99.90;;;;;;5074845;28;20025;-45
2023/03/02 11:25:08;;;;;;;;;;;4.20;99.90;;;;;;5093178;28;19993;-45
2023/03/02 11:27:35;;;;;;;;;;;4.30;99.90;;;;;;5090906;28;20004;-43
2023/03/02 11:30:02;;;;;;;;;;;4.30;99.90;;;;;;5073544;28;20044;-45
2023/03/02 11:32:31;;;;;;;;;;;4.40;99.90;;;;;;5074778;28;20037;-43
2023/03/02 11:34:58;;;;;;;;;;;4.50;99.90;;;;;;5109953;28;20007;-42
2023/03/02 11:37:25;;;;;;;;;;;4.50;99.90;;;;;;5113991;28;19945;-49
2023/03/02 11:40:04;;;;;;;;;;;4.60;99.90;;;;;;5091256;28;20413;-41
2023/03/02 11:42:31;;;;;;;;;;;4.60;99.90;;;;;;5093729;28;20381;-47
2023/03/02 11:44:58;;;;;;;;;;;4.50;99.90;;;;;;5093463;28;19936;-46
2023/03/02 11:47:24;;;;;;;;;;;4.60;99.90;;;;;;5093338;28;19974;-44
2023/03/02 11:49:54;;;;;;;;;;;4.70;99.90;;;;;;5093391;28;19943;-43
2023/03/02 11:52:21;;;;;;;;;;;4.70;99.90;;;;;;5070541;28;19944;-42
2023/03/02 11:54:49;;;;;;;;;;;4.90;99.90;;;;;;5075682;28;19941;-45
2023/03/02 11:57:18;;;;;;;;;;;4.80;99.90;;;;;;5092584;28;19994;-46
2023/03/02 11:59:44;;;;;;;;;;;4.90;99.90;;;;;;5093331;28;19941;-44
2023/03/02 12:02:11;;;;;;;;;;;5.00;99.90;;;;;;5075520;28;19990;-44
2023/03/02 12:04:38;;;;;;;;;;;5.00;99.90;;;;;;5071969;28;19950;-44
2023/03/02 12:07:16;;;;;;;;;;;5.10;99.90;;;;;;5093254;28;20001;-45
2023/03/02 12:09:43;;;;;;;;;;;5.20;99.90;;;;;;5075011;28;20015;-45
2023/03/02 12:12:15;;;;;;;;;;;5.20;99.90;;;;;;5073705;28;20036;-43
2023/03/02 12:14:42;;;;;;;;;;;5.20;99.90;;;;;;5075258;28;19987;-46
2023/03/02 12:17:19;;;;;;;;;;;5.10;99.90;;;;;;5091205;28;20023;-48
2023/03/02 12:19:46;;;;;;;;;;;5.00;99.90;;;;;;5075057;28;20469;-45
2023/03/02 12:22:14;;;;;;;;;;;5.00;99.90;;;;;;5091728;28;19995;-44
2023/03/02 12:24:41;;;;;;;;;;;5.00;99.90;;;;;;5092890;28;20295;-45
2023/03/02 12:27:24;;;;;;;;;;;5.00;99.90;;;;;;5074973;28;20384;-46
2023/03/02 12:29:51;;;;;;;;;;;4.90;99.90;;;;;;5074466;28;20054;-45
2023/03/02 12:32:23;;;;;;;;;;;5.00;99.90;;;;;;5091622;28;19985;-45
2023/03/02 12:34:51;;;;;;;;;;;4.80;99.90;;;;;;5070153;28;19944;-44
2023/03/02 12:37:21;;;;;;;;;;;4.90;99.90;;;;;;5073829;28;20451;-43
2023/03/02 12:39:59;;;;;;;;;;;5.10;99.90;;;;;;5074917;28;20290;-47
2023/03/02 12:42:39;;;;;;;;;;;5.30;99.90;;;;;;5073142;28;19988;-43
2023/03/02 12:45:12;;;;;;;;;;;5.50;99.90;;;;;;5092890;28;19997;-41
2023/03/02 12:47:38;;;;;;;;;;;5.60;99.90;;;;;;5074931;28;19986;-43
2023/03/02 12:50:05;;;;;;;;;;;5.70;99.90;;;;;;5091834;28;19991;-43
2023/03/02 12:52:34;;;;;;;;;;;5.70;99.90;;;;;;5092610;28;20006;-44
2023/03/02 12:55:01;;;;;;;;;;;5.70;99.90;;;;;;5074699;28;19989;-43
2023/03/02 12:57:28;;;;;;;;;;;5.70;99.90;;;;;;5074645;28;20000;-43
2023/03/02 12:59:55;;;;;;;;;;;5.70;99.90;;;;;;5091918;28;19994;-45
2023/03/02 13:02:22;;;;;;;;;;;5.80;99.90;;;;;;5071343;28;20115;-42
2023/03/02 13:04:52;;;;;;;;;;;5.80;99.90;;;;;;5074553;28;20020;-41
2023/03/02 13:07:19;;;;;;;;;;;5.80;99.90;;;;;;5072774;28;19938;-47
2023/03/02 13:09:50;;;;;;;;;;;5.90;99.90;;;;;;5089179;28;20011;-43
2023/03/02 13:12:17;;;;;;;;;;;5.90;99.90;;;;;;5054581;28;19941;-43
2023/03/02 13:14:44;;;;;;;;;;;6.10;99.90;;;;;;5092387;28;19978;-45
2023/03/02 13:17:15;;;;;;;;;;;6.20;99.90;;;;;;5092238;28;19979;-43
2023/03/02 13:19:42;;;;;;;;;;;6.30;99.90;;;;;;5074145;28;19936;-45
2023/03/02 13:22:11;;;;;;;;;;;6.40;99.90;;;;;;5091298;28;19992;-45
2023/03/02 13:24:44;;;;;;;;;;;6.50;99.90;;;;;;5093210;28;19946;-43
2023/03/02 13:27:16;;;;;;;;;;;6.70;99.90;;;;;;5078457;28;19992;-43
2023/03/02 13:29:42;;;;;;;;;;;6.90;99.90;;;;;;5078088;28;19962;-45
2023/03/02 13:32:16;;;;;;;;;;;7.00;99.90;;;;;;5091626;28;20031;-44
2023/03/02 13:34:47;;;;;;;;;;;6.90;99.90;;;;;;5064249;28;20031;-42
2023/03/02 13:37:18;;;;;;;;;;;7.00;99.90;;;;;;5075610;28;19992;-44
2023/03/02 13:39:44;;;;;;;;;;;7.10;99.90;;;;;;5076001;28;19997;-43
2023/03/02 13:42:24;;;;;;;;;;;7.20;99.90;;;;;;5088647;28;19945;-46
2023/03/02 13:44:51;;;;;;;;;;;7.20;99.90;;;;;;5077897;28;20456;-43
2023/03/02 13:47:20;;;;;;;;;;;7.10;99.90;;;;;;5095928;28;20462;-42
2023/03/02 13:49:47;;;;;;;;;;;7.10;99.90;;;;;;5077436;28;20004;-44
2023/03/02 13:52:19;;;;;;;;;;;7.10;99.90;;;;;;5076854;28;19989;-47
2023/03/02 13:54:46;;;;;;;;;;;7.20;99.90;;;;;;5076408;28;20039;-43
2023/03/02 13:57:14;;;;;;;;;;;7.20;99.90;;;;;;5095735;28;19937;-48
2023/03/02 13:59:42;;;;;;;;;;;7.20;99.90;;;;;;5095827;28;19985;-43
2023/03/02 14:02:12;;;;;;;;;;;7.20;99.90;;;;;;5094112;28;20399;-46
2023/03/02 14:04:39;;;;;;;;;;;7.30;99.90;;;;;;5077797;28;20396;-45
2023/03/02 14:07:05;;;;;;;;;;;7.30;99.90;;;;;;5095567;28;19968;-43
2023/03/02 14:09:32;;;;;;;;;;;7.40;99.90;;;;;;5094052;28;20366;-43
2023/03/02 14:11:59;;;;;;;;;;;7.40;99.90;;;;;;5077078;28;19935;-42
2023/03/02 14:14:26;;;;;;;;;;;7.40;99.90;;;;;;5077319;28;20001;-42
2023/03/02 14:16:54;;;;;;;;;;;7.40;99.90;;;;;;5076082;28;20010;-44
2023/03/02 14:19:20;;;;;;;;;;;7.40;99.90;;;;;;5076168;28;19938;-44
2023/03/02 14:21:47;;;;;;;;;;;7.30;99.90;;;;;;5077388;28;19994;-47
2023/03/02 14:24:14;;;;;;;;;;;7.30;99.90;;;;;;5093860;28;20000;-43
2023/03/02 14:26:42;;;;;;;;;;;7.30;99.90;;;;;;5076909;28;19995;-45
2023/03/02 14:29:13;;;;;;;;;;;7.30;99.90;;;;;;5076858;28;19964;-48
2023/03/02 14:31:40;;;;;;;;;;;7.30;99.90;;;;;;5075293;28;19983;-43
2023/03/02 14:34:10;;;;;;;;;;;7.30;99.90;;;;;;5074747;28;20038;-47
2023/03/02 14:36:36;;;;;;;;;;;7.30;99.90;;;;;;5077401;28;19985;-44